Time;durP1;ratioP1;P1;durP2;ratioP2;P2;SDS_P1;SDS_P2;PMS_P1;PMS_P2;Temp;Humidity;BMP_temperature;BMP_pressure;BME280_temperature;BME280_humidity;BME280_pressure;Samples;Min_cycle;Max_cycle;Signal;HPM_P1;HPM_P2
2023/04/25 00:01:37;;;;;;;3.03;1.05;;;7.30;99.90;;;;;;5116011;27;20645;-81
2023/04/25 00:04:05;;;;;;;4.97;1.25;;;7.30;99.90;;;;;;5086658;27;20044;-81
2023/04/25 00:06:32;;;;;;;6.07;1.35;;;7.30;99.90;;;;;;5085397;28;20042;-81
2023/04/25 00:08:57;;;;;;;10.70;1.70;;;7.20;99.90;;;;;;5081034;28;20043;-81
2023/04/25 00:11:23;;;;;;;6.07;0.98;;;7.20;99.90;;;;;;5109686;27;20043;-81
2023/04/25 00:13:52;;;;;;;6.30;1.80;;;7.20;99.90;;;;;;5096189;28;20077;-81
2023/04/25 00:16:18;;;;;;;4.80;1.25;;;7.20;99.90;;;;;;5092301;28;20063;-81
2023/04/25 00:18:46;;;;;;;4.95;1.20;;;7.20;99.90;;;;;;5098340;28;20088;-81
2023/04/25 00:21:11;;;;;;;5.68;1.13;;;7.20;99.90;;;;;;5080445;28;20062;-81
2023/04/25 00:23:38;;;;;;;3.78;1.10;;;7.20;99.90;;;;;;5079178;28;20035;-81
2023/04/25 00:26:04;;;;;;;2.25;0.93;;;7.20;99.90;;;;;;5092326;27;20040;-81
2023/04/25 00:28:30;;;;;;;4.45;1.33;;;7.20;99.90;;;;;;5080011;28;20739;-81
2023/04/25 00:30:55;;;;;;;5.47;1.42;;;7.20;99.90;;;;;;5077144;28;20283;-81
2023/04/25 00:33:21;;;;;;;3.45;1.00;;;7.20;99.90;;;;;;5126036;27;20036;-81
2023/04/25 00:35:47;;;;;;;4.38;1.02;;;7.20;99.90;;;;;;5129761;27;20082;-81
2023/04/25 00:38:12;;;;;;;5.75;1.45;;;7.20;99.90;;;;;;5077605;28;20043;-81
2023/04/25 00:40:38;;;;;;;8.60;1.75;;;7.20;99.90;;;;;;5124843;27;20536;-81
2023/04/25 00:43:04;;;;;;;6.15;1.40;;;7.20;99.90;;;;;;5111196;27;20039;-81
2023/04/25 00:45:30;;;;;;;3.40;1.02;;;7.20;99.90;;;;;;5113909;27;20031;-80
2023/04/25 00:47:56;;;;;;;4.18;1.02;;;7.20;99.90;;;;;;5106810;28;20040;-80
2023/04/25 00:50:23;;;;;;;4.40;1.17;;;7.10;99.90;;;;;;5083875;28;20040;-80
2023/04/25 00:52:49;;;;;;;5.90;1.25;;;7.10;99.90;;;;;;5078606;28;20085;-80
2023/04/25 00:55:15;;;;;;;4.07;1.25;;;7.00;99.90;;;;;;5110868;27;20039;-80
2023/04/25 00:57:42;;;;;;;3.25;1.90;;;7.00;99.90;;;;;;5096578;27;20074;-80
2023/04/25 01:00:13;;;;;;;4.75;1.30;;;6.90;99.90;;;;;;5129231;27;20117;-80
2023/04/25 01:02:40;;;;;;;2.33;0.75;;;6.90;99.90;;;;;;5082527;28;20032;-80
2023/04/25 01:05:05;;;;;;;2.03;0.93;;;6.90;99.90;;;;;;5128097;27;20259;-80
2023/04/25 01:07:31;;;;;;;3.88;1.05;;;6.80;99.90;;;;;;5115333;27;20035;-80
2023/04/25 01:09:57;;;;;;;4.40;1.05;;;6.80;99.90;;;;;;5100973;28;20524;-80
2023/04/25 01:12:23;;;;;;;2.53;0.98;;;6.70;99.90;;;;;;5084936;28;20507;-80
2023/04/25 01:14:49;;;;;;;4.43;1.10;;;6.70;99.90;;;;;;5131811;27;20028;-80
2023/04/25 01:17:14;;;;;;;4.20;0.93;;;6.80;99.90;;;;;;5113651;27;20485;-80
2023/04/25 01:19:41;;;;;;;4.00;0.98;;;6.70;99.90;;;;;;5080537;28;20494;-80
2023/04/25 01:22:06;;;;;;;6.18;1.10;;;6.70;99.90;;;;;;5096148;28;20125;-81
2023/04/25 01:24:32;;;;;;;6.03;1.40;;;6.70;99.90;;;;;;5094899;27;20035;-80
2023/04/25 01:27:00;;;;;;;3.58;1.00;;;6.70;99.90;;;;;;5097706;28;20032;-81
2023/04/25 01:29:26;;;;;;;3.83;1.00;;;6.60;99.90;;;;;;5104376;28;20054;-81
2023/04/25 01:31:53;;;;;;;2.55;1.15;;;6.70;99.90;;;;;;5084661;28;20046;-82
2023/04/25 01:34:19;;;;;;;4.72;0.90;;;6.60;99.90;;;;;;5095083;27;20496;-82
2023/04/25 01:36:45;;;;;;;2.78;1.10;;;6.60;99.90;;;;;;5116905;27;20486;-82
2023/04/25 01:39:11;;;;;;;4.38;1.48;;;6.60;99.90;;;;;;5082953;28;20489;-81
2023/04/25 01:41:37;;;;;;;3.40;0.80;;;6.60;99.90;;;;;;5114750;27;20305;-81
2023/04/25 01:44:02;;;;;;;2.08;1.20;;;6.50;99.90;;;;;;5092644;27;20067;-81
2023/04/25 01:46:30;;;;;;;4.75;1.48;;;6.50;99.90;;;;;;5099386;28;20369;-81
2023/04/25 01:48:56;;;;;;;2.58;1.25;;;6.50;99.90;;;;;;5096349;27;20055;-81
2023/04/25 01:51:21;;;;;;;2.05;1.00;;;6.50;99.90;;;;;;5096441;28;20071;-81
2023/04/25 01:53:47;;;;;;;3.97;0.77;;;6.50;99.90;;;;;;5107046;27;20672;-81
2023/04/25 01:56:13;;;;;;;2.28;1.17;;;6.40;99.90;;;;;;5108527;27;20286;-81
2023/04/25 01:58:38;;;;;;;5.07;1.20;;;6.40;99.90;;;;;;5100584;28;20253;-81
2023/04/25 02:01:04;;;;;;;2.88;1.10;;;6.40;99.90;;;;;;5077927;28;20036;-81
2023/04/25 02:03:31;;;;;;;4.38;1.38;;;6.40;99.90;;;;;;5094950;27;20498;-82
2023/04/25 02:05:57;;;;;;;3.40;0.73;;;6.40;99.90;;;;;;5128851;27;20134;-82
2023/04/25 02:08:23;;;;;;;2.10;0.80;;;6.40;99.90;;;;;;5111694;27;20143;-81
2023/04/25 02:10:48;;;;;;;2.15;1.30;;;6.40;99.90;;;;;;5094464;28;20036;-81
2023/04/25 02:13:14;;;;;;;6.70;0.95;;;6.30;99.90;;;;;;5132557;27;20047;-81
2023/04/25 02:15:40;;;;;;;5.78;1.58;;;6.40;99.90;;;;;;5112927;27;20061;-81
2023/04/25 02:18:06;;;;;;;2.35;1.00;;;6.40;99.90;;;;;;5101077;28;20113;-81
2023/04/25 02:20:32;;;;;;;4.93;1.08;;;6.40;99.90;;;;;;5079909;28;20048;-81
2023/04/25 02:22:58;;;;;;;4.40;1.00;;;6.40;99.90;;;;;;5098666;27;20051;-81
2023/04/25 02:25:24;;;;;;;4.30;1.25;;;6.40;99.90;;;;;;5072817;28;20405;-81
2023/04/25 02:27:51;;;;;;;5.70;0.98;;;6.40;99.90;;;;;;5109343;27;20028;-81
2023/04/25 02:30:16;;;;;;;2.60;1.50;;;6.50;99.90;;;;;;5097690;28;20067;-81
2023/04/25 02:32:42;;;;;;;5.18;0.90;;;6.50;99.90;;;;;;5117839;27;20086;-81
2023/04/25 02:35:08;;;;;;;3.78;1.20;;;6.40;99.90;;;;;;5084714;28;20047;-82
2023/04/25 02:37:35;;;;;;;1.17;0.50;;;6.40;99.90;;;;;;5110682;27;20040;-81
2023/04/25 02:40:02;;;;;;;2.28;0.63;;;6.50;99.90;;;;;;5116722;27;20044;-81
2023/04/25 02:42:28;;;;;;;2.13;0.85;;;6.40;99.90;;;;;;5080475;28;20396;-81
2023/04/25 02:44:54;;;;;;;3.35;0.75;;;6.40;99.90;;;;;;5097513;28;20038;-81
2023/04/25 02:47:19;;;;;;;3.45;0.98;;;6.50;99.90;;;;;;5095153;28;20078;-82
2023/04/25 02:49:45;;;;;;;3.45;0.93;;;6.50;99.90;;;;;;5098999;28;20032;-81
2023/04/25 02:52:11;;;;;;;1.23;0.77;;;6.50;99.90;;;;;;5079217;28;20041;-82
2023/04/25 02:54:38;;;;;;;5.47;0.85;;;6.50;99.90;;;;;;5099438;27;20047;-81
2023/04/25 02:57:04;;;;;;;2.90;0.60;;;6.40;99.90;;;;;;5097375;28;20055;-81
2023/04/25 02:59:29;;;;;;;0.98;0.50;;;6.50;99.90;;;;;;5098163;28;20032;-81
2023/04/25 03:01:55;;;;;;;3.60;1.13;;;6.50;99.90;;;;;;5082177;28;20114;-81
2023/04/25 03:04:23;;;;;;;2.95;1.15;;;6.50;99.90;;;;;;5079999;28;20063;-81
2023/04/25 03:06:49;;;;;;;1.88;0.93;;;6.50;99.90;;;;;;5078235;28;20035;-81
2023/04/25 03:09:15;;;;;;;3.55;0.90;;;6.50;99.90;;;;;;5104808;27;20032;-81
2023/04/25 03:11:41;;;;;;;2.67;1.00;;;6.50;99.90;;;;;;5131371;27;20047;-81
2023/04/25 03:14:06;;;;;;;4.90;0.85;;;6.40;99.90;;;;;;5078582;28;20288;-82
2023/04/25 03:16:32;;;;;;;2.17;0.90;;;6.40;99.90;;;;;;5109518;27;20397;-82
2023/04/25 03:18:58;;;;;;;4.10;0.65;;;6.40;99.90;;;;;;5116985;27;20082;-81
2023/04/25 03:21:23;;;;;;;1.83;0.57;;;6.40;99.90;;;;;;5088840;28;20201;-81
2023/04/25 03:23:49;;;;;;;3.97;0.88;;;6.40;99.90;;;;;;5078201;28;20043;-82
2023/04/25 03:26:15;;;;;;;1.92;0.93;;;6.40;99.90;;;;;;5096617;28;20043;-82
2023/04/25 03:28:41;;;;;;;1.95;0.82;;;6.40;99.90;;;;;;5083637;28;20024;-82
2023/04/25 03:31:07;;;;;;;1.27;0.82;;;6.40;99.90;;;;;;5112039;27;20066;-82
2023/04/25 03:33:32;;;;;;;1.10;0.50;;;6.40;99.90;;;;;;5109737;27;20044;-81
2023/04/25 03:35:58;;;;;;;5.47;1.00;;;6.40;99.90;;;;;;5081565;28;20138;-82
2023/04/25 03:38:23;;;;;;;2.15;0.52;;;6.40;99.90;;;;;;5108210;27;20035;-82
2023/04/25 03:40:50;;;;;;;1.60;0.82;;;6.40;99.90;;;;;;5078416;28;20036;-82
2023/04/25 03:43:16;;;;;;;3.08;1.02;;;6.40;99.90;;;;;;5093716;28;20085;-82
2023/04/25 03:45:42;;;;;;;2.75;0.80;;;6.40;99.90;;;;;;5100445;28;20059;-82
2023/04/25 03:48:07;;;;;;;1.48;0.60;;;6.40;99.90;;;;;;5099568;28;20040;-82
2023/04/25 03:50:33;;;;;;;3.92;0.73;;;6.40;99.90;;;;;;5097054;28;20046;-82
2023/04/25 03:52:59;;;;;;;2.42;0.75;;;6.40;99.90;;;;;;5125947;27;20055;-81
2023/04/25 03:55:24;;;;;;;1.35;0.60;;;6.40;99.90;;;;;;5082556;28;20043;-82
2023/04/25 03:57:50;;;;;;;2.75;0.60;;;6.30;99.90;;;;;;5110174;27;20040;-82
2023/04/25 04:00:15;;;;;;;3.92;0.65;;;6.30;99.90;;;;;;5132840;27;20044;-82
2023/04/25 04:02:41;;;;;;;0.73;0.32;;;6.30;99.90;;;;;;5090470;28;20028;-82
2023/04/25 04:05:07;;;;;;;1.80;0.50;;;6.20;99.90;;;;;;5128338;27;20037;-81
2023/04/25 04:07:33;;;;;;;3.28;0.38;;;6.20;99.90;;;;;;5074485;28;20124;-81
2023/04/25 04:09:59;;;;;;;2.95;0.88;;;6.20;99.90;;;;;;5101909;28;20050;-82
2023/04/25 04:12:24;;;;;;;1.83;0.50;;;6.10;99.90;;;;;;5095433;28;20039;-81
2023/04/25 04:14:50;;;;;;;2.40;0.40;;;6.10;99.90;;;;;;5107247;27;20040;-81
2023/04/25 04:17:15;;;;;;;1.17;0.50;;;6.00;99.90;;;;;;5101903;28;20137;-81
2023/04/25 04:19:41;;;;;;;0.60;0.30;;;6.00;99.90;;;;;;5090008;28;20047;-82
2023/04/25 04:22:07;;;;;;;4.38;0.60;;;6.00;99.90;;;;;;5087430;28;20051;-82
2023/04/25 04:24:32;;;;;;;1.92;0.50;;;6.00;99.90;;;;;;5111754;27;20035;-82
2023/04/25 04:26:58;;;;;;;0.77;0.40;;;6.00;99.90;;;;;;5079589;28;20034;-81
2023/04/25 04:29:24;;;;;;;2.28;0.50;;;6.00;99.90;;;;;;5110488;27;20154;-81
2023/04/25 04:31:52;;;;;;;2.13;0.50;;;6.00;99.90;;;;;;5077792;28;20480;-81
2023/04/25 04:34:18;;;;;;;0.88;0.28;;;5.90;99.90;;;;;;5097070;28;20051;-82
2023/04/25 04:36:45;;;;;;;1.85;1.20;;;5.90;99.90;;;;;;5089631;28;20032;-81
2023/04/25 04:39:12;;;;;;;1.80;0.65;;;5.90;99.90;;;;;;5072974;28;20592;-81
2023/04/25 04:41:37;;;;;;;1.58;0.43;;;5.90;99.90;;;;;;5094702;28;20067;-82
2023/04/25 04:44:03;;;;;;;0.43;0.25;;;5.80;99.90;;;;;;5077364;28;20068;-82
2023/04/25 04:46:30;;;;;;;2.47;0.77;;;5.80;99.90;;;;;;5078008;28;20050;-81
2023/04/25 04:48:56;;;;;;;1.20;0.50;;;5.80;99.90;;;;;;5095020;28;20082;-81
2023/04/25 04:51:21;;;;;;;1.55;0.60;;;5.80;99.90;;;;;;5112177;28;20039;-81
2023/04/25 04:53:47;;;;;;;4.07;0.70;;;5.90;99.90;;;;;;5123766;27;20065;-81
2023/04/25 04:56:13;;;;;;;1.00;0.80;;;5.80;99.90;;;;;;5105580;28;20458;-81
2023/04/25 04:58:39;;;;;;;1.40;0.55;;;5.80;99.90;;;;;;5082334;28;20061;-81
2023/04/25 05:01:04;;;;;;;2.58;0.55;;;5.80;99.90;;;;;;5096185;28;20085;-81
2023/04/25 05:03:30;;;;;;;5.45;0.70;;;5.90;99.90;;;;;;5095053;28;20031;-81
2023/04/25 05:05:56;;;;;;;0.63;0.40;;;5.90;99.90;;;;;;5099700;28;20040;-81
2023/04/25 05:08:21;;;;;;;0.50;0.40;;;5.90;99.90;;;;;;5074388;28;20441;-81
2023/04/25 05:10:47;;;;;;;2.03;0.47;;;5.90;99.90;;;;;;5093038;28;20044;-81
2023/04/25 05:13:12;;;;;;;0.75;0.32;;;5.90;99.90;;;;;;5075889;28;20127;-78
2023/04/25 05:15:38;;;;;;;2.83;0.60;;;5.90;99.90;;;;;;5107851;28;20047;-81
2023/04/25 05:18:04;;;;;;;0.95;0.43;;;5.90;99.90;;;;;;5114820;28;20122;-81
2023/04/25 05:20:29;;;;;;;1.13;0.68;;;5.90;99.90;;;;;;5073245;28;20109;-81
2023/04/25 05:22:55;;;;;;;0.70;0.30;;;5.90;99.90;;;;;;5068698;28;20114;-81
2023/04/25 05:25:21;;;;;;;1.67;0.55;;;5.90;99.90;;;;;;5078023;28;20055;-81
2023/04/25 05:27:46;;;;;;;3.00;0.47;;;5.90;99.90;;;;;;5080785;28;20039;-81
2023/04/25 05:30:12;;;;;;;2.20;0.35;;;6.00;99.90;;;;;;5111177;28;20390;-81
2023/04/25 05:32:37;;;;;;;2.60;0.35;;;6.00;99.90;;;;;;5105695;28;20071;-81
2023/04/25 05:35:03;;;;;;;1.10;0.40;;;6.00;99.90;;;;;;5115872;28;20036;-81
2023/04/25 05:37:31;;;;;;;3.45;0.50;;;6.10;99.90;;;;;;5109419;28;20035;-81
2023/04/25 05:39:56;;;;;;;0.82;0.50;;;6.00;99.90;;;;;;5101188;27;20529;-81
2023/04/25 05:42:22;;;;;;;2.97;0.80;;;6.10;99.90;;;;;;5093927;28;20036;-81
2023/04/25 05:44:47;;;;;;;2.28;0.65;;;6.10;99.90;;;;;;5098525;28;20764;-81
2023/04/25 05:47:13;;;;;;;1.77;0.60;;;6.20;99.90;;;;;;5097548;28;20046;-81
2023/04/25 05:49:39;;;;;;;1.55;0.40;;;6.20;99.90;;;;;;5083861;28;20032;-81
2023/04/25 05:52:04;;;;;;;3.20;0.70;;;6.20;99.90;;;;;;5093831;27;20132;-81
2023/04/25 05:54:30;;;;;;;3.90;0.47;;;6.20;99.90;;;;;;5082082;28;20067;-80
2023/04/25 05:56:59;;;;;;;2.30;0.50;;;6.30;99.90;;;;;;5109517;27;20040;-80
2023/04/25 05:59:25;;;;;;;1.48;0.50;;;6.30;99.90;;;;;;5114570;27;20024;-81
2023/04/25 06:01:51;;;;;;;3.15;0.50;;;6.30;99.90;;;;;;5081348;28;20039;-81
2023/04/25 06:04:17;;;;;;;3.33;0.40;;;6.30;99.90;;;;;;5097936;28;20036;-81
2023/04/25 06:06:42;;;;;;;5.97;0.93;;;6.40;99.90;;;;;;5084203;28;20039;-81
2023/04/25 06:09:08;;;;;;;1.05;0.47;;;6.50;99.90;;;;;;5105827;27;20039;-81
2023/04/25 06:11:33;;;;;;;2.65;0.70;;;6.60;99.90;;;;;;5091677;27;20818;-81
2023/04/25 06:13:59;;;;;;;2.80;0.60;;;6.60;99.90;;;;;;5080773;28;20036;-81
2023/04/25 06:16:25;;;;;;;2.28;0.85;;;6.70;99.90;;;;;;5126717;27;20059;-81
2023/04/25 06:18:51;;;;;;;1.75;0.55;;;6.70;99.90;;;;;;5099668;28;20892;-81
2023/04/25 06:21:17;;;;;;;1.52;0.40;;;6.80;99.90;;;;;;5108997;27;20143;-81
2023/04/25 06:23:42;;;;;;;4.38;0.68;;;6.80;99.90;;;;;;5117318;27;20038;-81
2023/04/25 06:26:08;;;;;;;2.08;1.02;;;6.80;99.90;;;;;;5080160;28;20028;-81
2023/04/25 06:28:33;;;;;;;1.85;0.70;;;6.80;99.90;;;;;;5076205;28;20056;-81
2023/04/25 06:30:59;;;;;;;5.10;0.63;;;6.80;99.90;;;;;;5097460;27;20485;-81
2023/04/25 06:33:25;;;;;;;3.42;0.50;;;6.90;99.90;;;;;;5112194;27;20031;-81
2023/04/25 06:35:50;;;;;;;1.90;0.73;;;6.90;99.90;;;;;;5098715;28;20036;-81
2023/04/25 06:38:16;;;;;;;1.25;0.68;;;6.90;99.90;;;;;;5078664;28;20032;-81
2023/04/25 06:40:41;;;;;;;1.17;0.60;;;6.90;99.90;;;;;;5094383;27;20035;-81
2023/04/25 06:43:07;;;;;;;4.25;0.85;;;7.00;99.90;;;;;;5109693;27;20130;-81
2023/04/25 06:45:33;;;;;;;1.02;0.50;;;7.00;99.90;;;;;;5091841;28;20062;-81
2023/04/25 06:47:58;;;;;;;1.23;0.60;;;7.00;99.90;;;;;;5080881;28;20436;-81
2023/04/25 06:50:24;;;;;;;1.25;0.75;;;7.20;99.90;;;;;;5085010;28;20032;-80
2023/04/25 06:52:49;;;;;;;2.17;0.50;;;7.30;99.90;;;;;;5129702;27;20401;-80
2023/04/25 06:55:15;;;;;;;3.67;0.70;;;7.40;99.90;;;;;;5096248;28;20051;-81
2023/04/25 06:57:41;;;;;;;5.85;0.60;;;7.40;99.90;;;;;;5126836;27;20040;-80
2023/04/25 07:00:09;;;;;;;4.97;0.90;;;7.40;99.90;;;;;;5132832;27;20036;-81
2023/04/25 07:02:35;;;;;;;3.15;0.40;;;7.40;99.90;;;;;;5082613;27;20071;-80
2023/04/25 07:05:00;;;;;;;1.13;0.40;;;7.30;99.90;;;;;;5101156;28;21297;-80
2023/04/25 07:07:27;;;;;;;1.63;0.43;;;7.20;99.90;;;;;;5075927;27;20036;-80
2023/04/25 07:09:52;;;;;;;2.80;0.40;;;7.10;99.90;;;;;;5081427;28;20048;-80
2023/04/25 07:12:18;;;;;;;0.80;0.22;;;7.10;99.90;;;;;;5128850;27;20046;-80
2023/04/25 07:14:43;;;;;;;1.15;0.38;;;7.10;99.90;;;;;;5093366;27;20181;-79
2023/04/25 07:17:09;;;;;;;1.20;0.30;;;7.10;99.90;;;;;;5108123;27;20561;-81
2023/04/25 07:19:36;;;;;;;1.70;0.17;;;7.20;99.90;;;;;;5112299;27;20063;-81
2023/04/25 07:22:02;;;;;;;3.45;0.57;;;7.30;99.90;;;;;;5074122;27;20048;-80
2023/04/25 07:24:27;;;;;;;1.88;0.60;;;7.50;99.90;;;;;;5110607;27;20405;-80
2023/04/25 07:26:53;;;;;;;0.20;0.20;;;7.50;99.90;;;;;;5078069;28;20062;-80
2023/04/25 07:29:19;;;;;;;1.98;0.30;;;7.50;99.90;;;;;;5074195;28;20027;-80
2023/04/25 07:31:45;;;;;;;1.38;0.60;;;7.50;99.90;;;;;;5100419;27;20040;-80
2023/04/25 07:34:10;;;;;;;1.17;0.22;;;7.50;99.90;;;;;;5095315;27;20523;-80
2023/04/25 07:36:36;;;;;;;1.95;0.43;;;7.40;99.90;;;;;;5098136;27;20572;-80
2023/04/25 07:39:01;;;;;;;2.72;0.50;;;7.40;99.90;;;;;;5109216;27;20036;-81
2023/04/25 07:41:27;;;;;;;0.80;0.20;;;7.40;99.90;;;;;;5097300;27;20067;-80
2023/04/25 07:43:52;;;;;;;1.63;0.50;;;7.50;99.90;;;;;;5124512;27;20044;-80
2023/04/25 07:46:18;;;;;;;1.98;0.60;;;7.50;99.90;;;;;;5083381;27;20498;-80
2023/04/25 07:48:44;;;;;;;2.47;0.30;;;7.40;99.90;;;;;;5111932;27;20434;-80
2023/04/25 07:51:09;;;;;;;1.15;0.30;;;7.40;99.90;;;;;;5085193;28;20042;-80
2023/04/25 07:53:37;;;;;;;0.73;0.38;;;7.40;99.90;;;;;;5078322;28;20036;-80
2023/04/25 07:56:03;;;;;;;2.33;0.20;;;7.40;99.90;;;;;;5083173;28;20031;-80
2023/04/25 07:58:28;;;;;;;1.25;0.52;;;7.40;99.90;;;;;;5098027;28;20066;-80
2023/04/25 08:00:54;;;;;;;1.52;0.32;;;7.40;99.90;;;;;;5081389;28;20473;-80
2023/04/25 08:03:21;;;;;;;1.00;0.73;;;7.50;99.90;;;;;;5096691;28;20071;-80
2023/04/25 08:05:46;;;;;;;2.28;0.47;;;7.70;99.90;;;;;;5113605;27;20043;-80
2023/04/25 08:08:12;;;;;;;1.67;0.40;;;7.70;99.90;;;;;;5076910;27;20020;-80
2023/04/25 08:10:37;;;;;;;2.40;0.55;;;7.80;99.90;;;;;;5075410;28;20043;-80
2023/04/25 08:13:03;;;;;;;2.10;0.32;;;7.80;99.90;;;;;;5100095;28;20040;-81
2023/04/25 08:15:29;;;;;;;2.95;0.45;;;7.80;99.90;;;;;;5097532;28;20039;-80
2023/04/25 08:17:54;;;;;;;0.93;0.40;;;7.70;99.90;;;;;;5076442;28;20068;-79
2023/04/25 08:20:20;;;;;;;1.77;0.35;;;7.70;99.90;;;;;;5091492;28;20063;-79
2023/04/25 08:22:48;;;;;;;2.58;0.40;;;7.60;99.90;;;;;;5077210;28;20386;-80
2023/04/25 08:25:14;;;;;;;5.65;1.02;;;7.40;99.90;;;;;;5102936;27;20263;-79
2023/04/25 08:27:40;;;;;;;0.77;0.20;;;7.30;99.90;;;;;;5097081;28;20256;-79
2023/04/25 08:30:08;;;;;;;2.75;0.73;;;7.30;99.90;;;;;;5108663;27;20036;-80
2023/04/25 08:32:33;;;;;;;0.98;0.38;;;7.20;99.90;;;;;;5092573;28;20436;-80
2023/04/25 08:34:59;;;;;;;3.05;0.50;;;7.20;99.90;;;;;;5093273;28;20040;-80
2023/04/25 08:37:25;;;;;;;1.90;0.68;;;7.20;99.90;;;;;;5080678;28;20035;-80
2023/04/25 08:39:53;;;;;;;4.90;0.63;;;7.30;99.90;;;;;;5075193;28;20175;-80
2023/04/25 08:42:21;;;;;;;2.38;0.80;;;7.30;99.90;;;;;;5088043;28;20044;-79
2023/04/25 08:44:48;;;;;;;2.55;0.35;;;7.40;99.90;;;;;;5093259;28;20722;-81
2023/04/25 08:47:14;;;;;;;1.20;0.50;;;7.40;99.90;;;;;;5076645;28;20067;-82
2023/04/25 08:49:42;;;;;;;2.20;0.50;;;7.50;99.90;;;;;;5094518;28;20120;-80
2023/04/25 08:52:10;;;;;;;1.92;0.40;;;7.50;99.90;;;;;;5087705;28;20051;-80
2023/04/25 08:54:36;;;;;;;1.00;0.50;;;7.60;99.90;;;;;;5123678;27;20040;-79
2023/04/25 08:57:03;;;;;;;0.98;0.20;;;7.70;99.90;;;;;;5090274;28;20040;-79
2023/04/25 08:59:30;;;;;;;2.05;0.25;;;7.80;99.90;;;;;;5075051;28;20059;-80
2023/04/25 09:01:56;;;;;;;2.28;0.40;;;7.90;99.90;;;;;;5077428;28;20040;-80
2023/04/25 09:04:22;;;;;;;2.15;0.40;;;8.00;99.90;;;;;;5081587;28;20043;-80
2023/04/25 09:06:48;;;;;;;4.45;0.40;;;8.00;99.90;;;;;;5120633;27;20428;-80
2023/04/25 09:09:13;;;;;;;0.70;0.30;;;7.90;99.90;;;;;;5123747;27;20123;-80
2023/04/25 09:11:40;;;;;;;1.05;0.10;;;7.70;99.90;;;;;;5089787;28;20048;-80
2023/04/25 09:14:20;;;;;;;2.58;0.30;;;7.60;99.90;;;;;;5077925;28;20044;-79
2023/04/25 09:17:12;;;;;;;1.10;0.40;;;7.40;99.90;;;;;;5080319;28;20053;-79
2023/04/25 09:19:40;;;;;;;0.40;0.20;;;7.40;99.90;;;;;;5124402;27;20052;-80
2023/04/25 09:22:06;;;;;;;0.55;0.20;;;7.40;99.90;;;;;;5127945;27;20043;-80
2023/04/25 09:24:44;;;;;;;1.20;0.45;;;7.20;99.90;;;;;;5102687;27;20131;-79
2023/04/25 09:27:11;;;;;;;0.47;0.10;;;7.10;99.90;;;;;;5088687;27;20039;-80
2023/04/25 09:29:41;;;;;;;0.20;0.20;;;6.90;99.90;;;;;;5094948;28;20473;-80
2023/04/25 09:32:12;;;;;;;0.20;0.10;;;6.90;99.90;;;;;;5094574;27;20100;-80
2023/04/25 09:34:57;;;;;;;0.75;0.22;;;6.90;99.90;;;;;;5100429;27;20476;-80
2023/04/25 09:37:28;;;;;;;0.50;0.20;;;6.80;99.90;;;;;;5095058;27;20051;-80
2023/04/25 09:40:05;;;;;;;1.10;0.38;;;6.90;99.90;;;;;;5099936;28;20456;-80
2023/04/25 09:42:31;;;;;;;3.83;0.40;;;7.00;99.90;;;;;;5122687;27;20044;-80
2023/04/25 09:44:58;;;;;;;3.55;0.35;;;7.00;99.90;;;;;;5098802;27;20043;-80
2023/04/25 09:47:26;;;;;;;3.95;0.30;;;7.10;99.90;;;;;;5099497;27;20064;-79
2023/04/25 09:49:53;;;;;;;2.50;0.30;;;7.20;99.90;;;;;;5079078;28;20037;-79
2023/04/25 09:52:23;;;;;;;0.98;0.38;;;7.30;99.90;;;;;;5091714;27;20027;-80
2023/04/25 09:54:49;;;;;;;0.25;0.25;;;7.40;99.90;;;;;;5128444;27;20493;-79
2023/04/25 09:57:20;;;;;;;0.75;0.30;;;7.40;99.90;;;;;;5079754;28;20040;-80
2023/04/25 09:59:48;;;;;;;0.82;0.30;;;7.60;99.90;;;;;;5125529;27;20654;-80
2023/04/25 10:02:16;;;;;;;0.98;0.28;;;7.60;99.90;;;;;;5098180;27;20503;-80
2023/04/25 10:04:47;;;;;;;0.90;0.40;;;7.80;99.90;;;;;;5075999;28;20453;-80
2023/04/25 10:07:13;;;;;;;3.78;0.35;;;7.90;99.90;;;;;;5083123;27;20564;-80
2023/04/25 10:09:40;;;;;;;4.32;0.50;;;8.10;99.90;;;;;;5092380;28;20053;-79
2023/04/25 10:12:07;;;;;;;2.20;0.25;;;8.30;99.90;;;;;;5094916;27;20594;-78
2023/04/25 10:14:33;;;;;;;1.88;0.40;;;8.10;99.90;;;;;;5077507;28;20127;-80
2023/04/25 10:17:00;;;;;;;1.48;0.57;;;7.60;99.90;;;;;;5100005;27;20114;-81
2023/04/25 10:19:26;;;;;;;1.92;0.50;;;7.10;99.90;;;;;;5095165;27;20043;-79
2023/04/25 10:22:14;;;;;;;0.93;0.50;;;6.80;99.90;;;;;;5074714;27;21033;-79
2023/04/25 10:24:41;;;;;;;2.13;0.38;;;6.60;99.90;;;;;;5095409;27;20292;-79
2023/04/25 10:27:07;;;;;;;3.65;0.47;;;6.60;99.90;;;;;;5081565;28;20032;-79
2023/04/25 10:29:35;;;;;;;0.65;0.17;;;6.60;99.90;;;;;;5098138;27;20044;-79
2023/04/25 10:32:00;;;;;;;1.50;0.38;;;6.70;99.90;;;;;;5098794;28;20031;-79
2023/04/25 10:34:42;;;;;;;0.50;0.35;;;6.70;99.90;;;;;;5085615;28;20478;-80
2023/04/25 10:37:11;;;;;;;1.00;0.47;;;6.80;99.90;;;;;;5078452;28;20504;-80
2023/04/25 10:39:42;;;;;;;1.40;0.20;;;6.80;99.90;;;;;;5103251;28;20045;-79
2023/04/25 10:42:07;;;;;;;2.88;0.73;;;6.90;99.90;;;;;;5083854;28;20053;-79
2023/04/25 10:44:34;;;;;;;3.85;0.50;;;7.10;99.90;;;;;;5099860;28;20037;-80
2023/04/25 10:47:02;;;;;;;0.68;0.40;;;7.20;99.90;;;;;;5081423;28;20066;-79
2023/04/25 10:49:30;;;;;;;0.47;0.40;;;7.30;99.90;;;;;;5116484;27;20574;-79
2023/04/25 10:52:12;;;;;;;11.80;0.85;;;7.40;99.90;;;;;;5091740;27;20495;-79
2023/04/25 10:54:57;;;;;;;3.72;0.50;;;7.60;99.90;;;;;;5126933;27;20050;-79
2023/04/25 10:57:43;;;;;;;1.85;0.55;;;7.70;99.90;;;;;;5091176;27;20039;-79
2023/04/25 11:00:15;;;;;;;1.83;0.40;;;7.80;99.90;;;;;;5079808;28;20035;-79
2023/04/25 11:02:46;;;;;;;2.28;0.80;;;7.80;99.90;;;;;;5097570;28;20084;-79
2023/04/25 11:05:29;;;;;;;1.20;0.40;;;7.80;99.90;;;;;;5102163;28;20038;-79
2023/04/25 11:07:57;;;;;;;0.32;0.22;;;7.80;99.90;;;;;;5095985;28;20078;-79
2023/04/25 11:10:34;;;;;;;2.53;0.60;;;7.90;99.90;;;;;;5125600;27;20040;-79
2023/04/25 11:13:01;;;;;;;1.08;0.25;;;8.00;99.90;;;;;;5092038;27;20043;-79
2023/04/25 11:15:27;;;;;;;1.98;0.40;;;7.90;99.90;;;;;;5085418;28;20050;-79
2023/04/25 11:17:53;;;;;;;3.28;1.08;;;7.90;99.90;;;;;;5124687;27;20043;-79
2023/04/25 11:20:19;;;;;;;1.65;1.40;;;7.80;99.90;;;;;;5083077;28;20044;-79
2023/04/25 11:22:46;;;;;;;2.47;0.45;;;7.80;99.90;;;;;;5093019;27;20107;-79
2023/04/25 11:25:14;;;;;;;0.85;0.20;;;7.70;99.90;;;;;;5080980;28;20495;-79
2023/04/25 11:27:53;;;;;;;2.17;0.43;;;7.70;99.90;;;;;;5123060;27;20559;-79
2023/04/25 11:30:20;;;;;;;3.70;0.63;;;7.80;99.90;;;;;;5100043;28;20039;-79
2023/04/25 11:32:46;;;;;;;1.75;0.55;;;7.90;99.90;;;;;;5097555;28;20047;-78
2023/04/25 11:35:12;;;;;;;0.73;0.30;;;8.10;99.90;;;;;;5126588;27;20044;-79
2023/04/25 11:37:41;;;;;;;0.55;0.38;;;8.10;99.90;;;;;;5090686;27;20758;-79
2023/04/25 11:40:09;;;;;;;3.03;0.63;;;8.00;99.90;;;;;;5081067;28;20219;-79
2023/04/25 11:42:39;;;;;;;2.05;0.40;;;7.90;99.90;;;;;;5091714;27;20054;-79
2023/04/25 11:45:06;;;;;;;0.70;0.32;;;7.80;99.90;;;;;;5083070;28;20042;-79
2023/04/25 11:47:33;;;;;;;2.22;0.40;;;7.60;99.90;;;;;;5096219;28;20038;-79
2023/04/25 11:50:00;;;;;;;1.98;0.40;;;7.60;99.90;;;;;;5093222;28;20490;-79
2023/04/25 11:52:46;;;;;;;0.95;0.30;;;7.50;99.90;;;;;;5082563;28;20043;-80
2023/04/25 11:55:17;;;;;;;1.25;0.20;;;7.50;99.90;;;;;;5078809;28;20028;-79
2023/04/25 11:57:48;;;;;;;0.80;0.15;;;7.50;99.90;;;;;;5077144;28;20035;-79
2023/04/25 12:00:17;;;;;;;1.30;0.45;;;7.60;99.90;;;;;;5105332;27;20077;-79
2023/04/25 12:02:43;;;;;;;2.20;0.95;;;7.70;99.90;;;;;;5076793;28;20039;-79
2023/04/25 12:05:15;;;;;;;3.17;0.57;;;7.80;99.90;;;;;;5095168;27;20614;-79
2023/04/25 12:07:41;;;;;;;2.13;0.30;;;7.90;99.90;;;;;;5106570;27;20069;-80
2023/04/25 12:10:15;;;;;;;1.63;0.43;;;8.00;99.90;;;;;;5091919;28;20040;-79
2023/04/25 12:12:45;;;;;;;2.15;0.77;;;8.00;99.90;;;;;;5082953;28;20508;-78
2023/04/25 12:15:24;;;;;;;1.77;0.38;;;8.20;99.90;;;;;;5098977;28;20055;-78
2023/04/25 12:17:52;;;;;;;2.45;0.73;;;8.30;99.90;;;;;;5097413;28;20377;-78
2023/04/25 12:20:24;;;;;;;1.75;0.40;;;8.30;99.90;;;;;;5081928;28;20617;-79
2023/04/25 12:22:51;;;;;;;6.00;0.85;;;8.20;99.90;;;;;;5103878;27;20077;-79
2023/04/25 12:25:43;;;;;;;2.45;0.70;;;8.10;99.90;;;;;;5112969;27;20070;-79
2023/04/25 12:28:12;;;;;;;1.77;0.60;;;8.00;99.90;;;;;;5082510;28;20404;-79
2023/04/25 12:30:58;;;;;;;2.47;0.57;;;7.90;99.90;;;;;;5078370;28;20108;-79
2023/04/25 12:33:24;;;;;;;2.70;0.93;;;7.90;99.90;;;;;;5117318;27;20047;-79
2023/04/25 12:35:50;;;;;;;1.35;0.50;;;7.90;99.90;;;;;;5075762;28;20035;-79
2023/04/25 12:38:22;;;;;;;2.58;0.60;;;8.00;99.90;;;;;;5091609;28;20066;-79
2023/04/25 12:40:48;;;;;;;1.52;0.70;;;8.10;99.90;;;;;;5115922;27;20044;-79
2023/04/25 12:43:14;;;;;;;3.95;0.70;;;8.20;99.90;;;;;;5094805;28;20031;-79
2023/04/25 12:45:39;;;;;;;3.75;0.60;;;8.10;99.90;;;;;;5100739;28;20092;-79
2023/04/25 12:48:05;;;;;;;0.80;0.28;;;8.10;99.90;;;;;;5095633;28;20038;-79
2023/04/25 12:50:31;;;;;;;2.22;0.32;;;8.00;99.90;;;;;;5081963;27;20071;-79
2023/04/25 12:52:57;;;;;;;3.30;0.38;;;8.10;99.90;;;;;;5083458;28;20036;-79
2023/04/25 12:55:23;;;;;;;2.17;0.30;;;8.10;99.90;;;;;;5086692;28;20039;-78
2023/04/25 12:57:48;;;;;;;4.57;0.80;;;8.20;99.90;;;;;;5097653;28;20043;-78